createdAt,value
2022-11-29T00:01:33.912Z,6.67
2022-11-29T00:04:02.153Z,6.66
2022-11-29T00:06:32.141Z,6.66
2022-11-29T00:09:02.346Z,6.66
2022-11-29T00:11:51.838Z,6.67
2022-11-29T00:14:22.165Z,6.65
2022-11-29T00:16:54.593Z,6.66
2022-11-29T00:19:22.978Z,6.65
2022-11-29T00:21:51.020Z,6.65
2022-11-29T00:24:19.318Z,6.63
2022-11-29T00:26:47.118Z,6.63
2022-11-29T00:29:14.967Z,6.62
2022-11-29T00:31:44.596Z,6.65
2022-11-29T00:34:12.915Z,6.62
2022-11-29T00:36:40.947Z,6.62
2022-11-29T00:39:12.059Z,6.61
2022-11-29T00:41:40.041Z,6.61
2022-11-29T00:44:07.927Z,6.61
2022-11-29T00:46:35.601Z,6.59
2022-11-29T00:49:04.988Z,6.56
2022-11-29T00:51:32.866Z,6.57
2022-11-29T00:54:00.828Z,6.55
2022-11-29T00:56:28.789Z,6.57
2022-11-29T00:58:56.701Z,6.54
2022-11-29T01:01:24.654Z,6.55
2022-11-29T01:03:52.514Z,6.54
2022-11-29T01:06:21.567Z,6.52
2022-11-29T01:08:49.577Z,6.52
2022-11-29T01:11:20.512Z,6.55
2022-11-29T01:13:49.366Z,6.54
2022-11-29T01:16:17.453Z,6.52
2022-11-29T01:18:45.448Z,6.52
2022-11-29T01:21:15.564Z,6.51
2022-11-29T01:23:45.697Z,6.52
2022-11-29T01:26:16.109Z,6.50
2022-11-29T01:28:46.277Z,6.50
2022-11-29T01:31:16.727Z,6.51
2022-11-29T01:33:44.915Z,6.52
2022-11-29T01:36:13.792Z,6.49
2022-11-29T01:38:43.541Z,6.50
2022-11-29T01:41:17.444Z,6.51
2022-11-29T01:44:01.258Z,6.50
2022-11-29T01:46:30.343Z,6.49
2022-11-29T01:49:01.600Z,6.47
2022-11-29T01:51:30.317Z,6.46
2022-11-29T01:53:59.305Z,6.55
2022-11-29T01:56:29.679Z,6.49
2022-11-29T01:58:57.784Z,6.50
2022-11-29T02:01:26.063Z,6.51
2022-11-29T02:03:54.939Z,6.50
2022-11-29T02:06:23.633Z,6.50
2022-11-29T02:08:51.392Z,6.51
2022-11-29T02:11:41.905Z,6.50
2022-11-29T02:14:24.232Z,6.44
2022-11-29T02:16:59.680Z,6.45
2022-11-29T02:19:57.650Z,6.49
2022-11-29T02:22:33.189Z,6.49
2022-11-29T02:25:22.816Z,6.48
2022-11-29T02:28:30.616Z,6.49
2022-11-29T02:31:19.764Z,6.45
2022-11-29T02:34:09.166Z,6.45
2022-11-29T02:36:59.792Z,6.44
2022-11-29T02:39:44.854Z,6.43
2022-11-29T02:42:55.756Z,6.42
2022-11-29T02:45:59.715Z,6.45
2022-11-29T02:48:47.226Z,6.51
2022-11-29T02:51:25.237Z,6.44
2022-11-29T02:54:01.392Z,6.47
2022-11-29T02:56:38.197Z,6.42
2022-11-29T02:59:13.829Z,6.40
2022-11-29T03:01:53.048Z,6.42
2022-11-29T03:04:29.035Z,6.42
2022-11-29T03:07:05.073Z,6.42
2022-11-29T03:09:38.157Z,6.40
2022-11-29T03:12:17.441Z,6.43
2022-11-29T03:14:57.815Z,6.46
2022-11-29T03:17:35.168Z,6.42
2022-11-29T03:20:20.989Z,6.40
2022-11-29T03:23:04.564Z,6.42
2022-11-29T03:25:38.189Z,6.40
2022-11-29T03:28:14.597Z,6.38
2022-11-29T03:30:47.134Z,6.39
2022-11-29T03:33:22.844Z,6.40
2022-11-29T03:36:00.195Z,6.58
2022-11-29T03:38:39.495Z,6.44
2022-11-29T03:41:17.337Z,6.38
2022-11-29T03:43:54.177Z,6.42
2022-11-29T03:46:31.638Z,6.42
2022-11-29T03:49:04.518Z,6.37
2022-11-29T03:51:44.098Z,6.36
2022-11-29T03:54:19.142Z,6.38
2022-11-29T03:56:47.623Z,6.35
2022-11-29T03:59:32.185Z,6.35
2022-11-29T04:02:33.719Z,6.33
2022-11-29T04:05:20.597Z,6.34
2022-11-29T04:08:02.252Z,6.33
2022-11-29T04:11:06.357Z,6.31
2022-11-29T04:14:06.695Z,6.30
2022-11-29T04:17:09.518Z,6.32
2022-11-29T04:20:11.434Z,6.32
2022-11-29T04:23:09.278Z,6.33
2022-11-29T04:25:54.366Z,6.31
2022-11-29T04:28:51.669Z,6.34
2022-11-29T04:31:35.452Z,6.32
2022-11-29T04:34:33.757Z,6.35
2022-11-29T04:37:16.652Z,6.38
2022-11-29T04:40:02.372Z,6.39
2022-11-29T04:43:02.138Z,6.42
2022-11-29T04:46:06.463Z,6.42
2022-11-29T04:48:56.831Z,6.39
2022-11-29T04:51:37.698Z,6.41
2022-11-29T04:54:12.736Z,6.37
2022-11-29T04:56:45.469Z,6.34
2022-11-29T04:59:21.705Z,6.32
2022-11-29T05:02:01.568Z,6.32
2022-11-29T05:04:38.258Z,6.35
2022-11-29T05:07:15.444Z,6.35
2022-11-29T05:09:58.805Z,6.32
2022-11-29T05:12:34.003Z,6.33
2022-11-29T05:15:38.309Z,6.31
2022-11-29T05:18:16.066Z,6.33
2022-11-29T05:20:49.268Z,6.33
2022-11-29T05:23:33.340Z,6.34
2022-11-29T05:26:07.291Z,6.29
2022-11-29T05:28:44.736Z,6.31
2022-11-29T05:31:40.388Z,6.28
2022-11-29T05:34:34.727Z,6.30
2022-11-29T05:37:13.050Z,6.29
2022-11-29T05:39:56.925Z,6.29
2022-11-29T05:42:39.529Z,6.29
2022-11-29T05:45:16.095Z,6.31
2022-11-29T05:47:51.251Z,6.29
2022-11-29T05:50:28.071Z,6.30
2022-11-29T05:53:17.729Z,6.28
2022-11-29T05:55:54.287Z,6.31
2022-11-29T05:58:33.109Z,6.32
2022-11-29T06:01:06.464Z,6.34
2022-11-29T06:03:38.153Z,6.33
2022-11-29T06:06:16.545Z,6.33
2022-11-29T06:08:51.675Z,6.34
2022-11-29T06:11:25.090Z,6.34
2022-11-29T06:14:05.510Z,6.32
2022-11-29T06:16:52.028Z,6.31
2022-11-29T06:19:35.489Z,6.33
2022-11-29T06:22:16.937Z,6.34
2022-11-29T06:24:58.375Z,6.32
2022-11-29T06:27:44.138Z,6.33
2022-11-29T06:30:16.002Z,6.28
2022-11-29T06:32:52.776Z,6.25
2022-11-29T06:35:36.801Z,6.23
2022-11-29T06:38:13.541Z,6.26
2022-11-29T06:40:41.939Z,6.27
2022-11-29T06:43:10.314Z,6.22
2022-11-29T06:45:39.610Z,6.23
2022-11-29T06:48:10.802Z,6.26
2022-11-29T06:50:54.368Z,6.27
2022-11-29T06:53:33.832Z,6.25
2022-11-29T06:56:09.017Z,6.24
2022-11-29T06:58:47.017Z,6.25
2022-11-29T07:01:26.032Z,6.23
2022-11-29T07:04:21.501Z,6.20
2022-11-29T07:06:49.645Z,6.22
2022-11-29T07:09:22.974Z,6.20
2022-11-29T07:11:51.324Z,6.22
2022-11-29T07:14:19.608Z,6.25
2022-11-29T07:16:57.739Z,6.28
2022-11-29T07:19:34.132Z,6.31
2022-11-29T07:22:14.655Z,6.30
2022-11-29T07:24:58.909Z,6.31
2022-11-29T07:27:38.902Z,6.31
2022-11-29T07:30:13.607Z,6.30
2022-11-29T07:33:00.355Z,6.31
2022-11-29T07:35:37.653Z,6.35
2022-11-29T07:38:14.050Z,6.37
2022-11-29T07:40:54.035Z,6.42
2022-11-29T07:43:32.610Z,6.44
2022-11-29T07:46:01.610Z,6.47
2022-11-29T07:48:29.665Z,6.49
2022-11-29T07:50:57.976Z,6.51
2022-11-29T07:53:25.774Z,6.54
2022-11-29T07:55:54.857Z,6.56
2022-11-29T07:58:22.687Z,6.57
2022-11-29T08:00:50.938Z,6.56
2022-11-29T08:03:18.760Z,6.58
2022-11-29T08:05:48.203Z,6.59
2022-11-29T08:08:16.059Z,6.65
2022-11-29T08:10:43.698Z,6.67
2022-11-29T08:13:13.375Z,6.72
2022-11-29T08:15:45.418Z,6.73
2022-11-29T08:18:13.340Z,6.79
2022-11-29T08:20:41.846Z,6.81
2022-11-29T08:23:13.129Z,6.86
2022-11-29T08:25:40.878Z,6.88
2022-11-29T08:28:09.139Z,6.91
2022-11-29T08:30:38.361Z,6.97
2022-11-29T08:33:07.132Z,6.98
2022-11-29T08:35:35.734Z,7.02
2022-11-29T08:38:04.965Z,7.04
2022-11-29T08:40:32.924Z,7.04
2022-11-29T08:43:00.586Z,7.03
2022-11-29T08:45:28.351Z,7.09
2022-11-29T08:47:57.621Z,7.14
2022-11-29T08:50:25.621Z,7.17
2022-11-29T08:53:10.897Z,7.19
2022-11-29T08:55:40.963Z,7.20
2022-11-29T08:58:11.199Z,7.24
2022-11-29T09:00:40.579Z,7.28
2022-11-29T09:03:27.539Z,7.30
2022-11-29T09:05:55.343Z,7.28
2022-11-29T09:08:23.021Z,7.31
2022-11-29T09:10:51.155Z,7.32
2022-11-29T09:13:19.095Z,7.27
2022-11-29T09:15:46.810Z,7.26
2022-11-29T09:18:16.007Z,7.32
2022-11-29T09:20:44.781Z,7.33
2022-11-29T09:23:13.671Z,7.31
2022-11-29T09:25:41.410Z,7.32
2022-11-29T09:28:09.043Z,7.35
2022-11-29T09:30:38.052Z,7.33
2022-11-29T09:33:05.970Z,7.39
2022-11-29T09:35:35.639Z,7.42
2022-11-29T09:38:04.137Z,7.46
2022-11-29T09:40:34.886Z,7.44
2022-11-29T09:43:07.918Z,7.48
2022-11-29T09:45:40.370Z,7.48
2022-11-29T09:48:27.090Z,7.49
2022-11-29T09:51:05.089Z,7.48
2022-11-29T09:53:46.465Z,7.47
2022-11-29T09:56:23.421Z,7.49
2022-11-29T09:58:56.475Z,7.51
2022-11-29T10:01:28.074Z,7.54
2022-11-29T10:04:01.255Z,7.58
2022-11-29T10:06:36.941Z,7.48
2022-11-29T10:09:09.307Z,7.48
2022-11-29T10:11:42.814Z,7.50
2022-11-29T10:14:15.923Z,7.51
2022-11-29T10:16:49.637Z,7.52
2022-11-29T10:19:26.373Z,7.51
2022-11-29T10:22:03.385Z,7.50
2022-11-29T10:24:34.091Z,7.50
2022-11-29T10:27:02.070Z,7.52
2022-11-29T10:29:29.841Z,7.55
2022-11-29T10:31:59.570Z,7.58
2022-11-29T10:34:30.152Z,7.64
2022-11-29T10:37:02.183Z,7.64
2022-11-29T10:39:37.382Z,7.69
2022-11-29T10:42:06.572Z,7.72
2022-11-29T10:44:34.929Z,7.75
2022-11-29T10:47:10.806Z,7.76
2022-11-29T10:49:40.374Z,7.79
2022-11-29T10:52:20.029Z,7.82
2022-11-29T10:54:50.536Z,7.79
2022-11-29T10:57:21.926Z,7.82
2022-11-29T11:00:00.544Z,7.83
2022-11-29T11:02:29.065Z,7.82
2022-11-29T11:04:58.074Z,7.81
2022-11-29T11:07:32.046Z,7.80
2022-11-29T11:10:00.675Z,7.82
2022-11-29T11:12:31.456Z,7.83
2022-11-29T11:15:16.751Z,7.84
2022-11-29T11:17:57.834Z,7.82
2022-11-29T11:20:38.969Z,7.81
2022-11-29T11:23:24.700Z,7.80
2022-11-29T11:25:58.696Z,7.81
2022-11-29T11:28:28.686Z,7.82
2022-11-29T11:30:59.303Z,7.85
2022-11-29T11:33:28.782Z,7.90
2022-11-29T11:36:03.410Z,7.93
2022-11-29T11:38:32.806Z,7.98
2022-11-29T11:41:23.249Z,8.02
2022-11-29T11:43:57.571Z,8.06
2022-11-29T11:46:47.245Z,8.08
2022-11-29T11:49:15.400Z,8.07
2022-11-29T11:51:44.923Z,8.09
2022-11-29T11:54:16.251Z,8.11
2022-11-29T11:56:44.080Z,8.12
2022-11-29T11:59:20.680Z,8.06
2022-11-29T12:01:48.524Z,8.07
2022-11-29T12:04:21.089Z,8.09
2022-11-29T12:06:52.412Z,8.08
2022-11-29T12:09:29.245Z,8.09
2022-11-29T12:12:05.314Z,8.09
2022-11-29T12:14:42.245Z,8.13
2022-11-29T12:17:20.152Z,8.13
2022-11-29T12:20:00.409Z,8.14
2022-11-29T12:22:34.956Z,8.19
2022-11-29T12:25:08.340Z,8.19
2022-11-29T12:27:36.166Z,8.21
2022-11-29T12:30:12.542Z,8.19
2022-11-29T12:32:58.348Z,8.21
2022-11-29T12:35:42.318Z,8.22
2022-11-29T12:38:24.808Z,8.22
2022-11-29T12:41:03.909Z,8.25
2022-11-29T12:43:51.360Z,8.25
2022-11-29T12:46:24.664Z,8.28
2022-11-29T12:49:01.404Z,8.31
2022-11-29T12:51:40.561Z,8.32
2022-11-29T12:54:21.414Z,8.31
2022-11-29T12:56:59.462Z,8.32
2022-11-29T12:59:42.801Z,8.31
2022-11-29T13:02:27.086Z,8.32
2022-11-29T13:05:02.072Z,8.34
2022-11-29T13:07:40.978Z,8.37
2022-11-29T13:10:30.289Z,8.33
2022-11-29T13:13:03.641Z,8.31
2022-11-29T13:15:40.567Z,8.31
2022-11-29T13:18:19.758Z,8.32
2022-11-29T13:20:55.780Z,8.31
2022-11-29T13:23:45.688Z,8.32
2022-11-29T13:26:20.208Z,8.28
2022-11-29T13:28:50.183Z,8.29
2022-11-29T13:31:21.038Z,8.27
2022-11-29T13:33:59.944Z,8.27
2022-11-29T13:36:37.451Z,8.23
2022-11-29T13:39:16.969Z,8.24
2022-11-29T13:41:51.699Z,8.25
2022-11-29T13:44:33.052Z,8.27
2022-11-29T13:47:06.582Z,8.27
2022-11-29T13:49:54.587Z,8.29
2022-11-29T13:52:36.906Z,8.29
2022-11-29T13:55:18.449Z,8.29
2022-11-29T14:00:51.562Z,8.29
2022-11-29T14:03:40.782Z,8.34
2022-11-29T14:06:14.963Z,8.31
2022-11-29T14:09:20.593Z,8.29
2022-11-29T14:11:51.778Z,8.29
2022-11-29T14:14:27.105Z,8.28
2022-11-29T14:17:00.079Z,8.27
2022-11-29T14:19:37.143Z,8.24
2022-11-29T14:22:19.892Z,8.24
2022-11-29T14:25:43.230Z,8.24
2022-11-29T14:28:32.015Z,8.22
2022-11-29T14:31:01.581Z,8.23
2022-11-29T14:33:57.478Z,8.23
2022-11-29T14:36:38.805Z,8.23
2022-11-29T14:39:25.678Z,8.23
2022-11-29T14:42:02.454Z,8.19
2022-11-29T14:44:32.364Z,8.19
2022-11-29T14:47:03.523Z,8.19
2022-11-29T14:49:39.357Z,8.17
2022-11-29T14:52:19.152Z,8.20
2022-11-29T14:55:06.575Z,8.17
2022-11-29T14:58:07.878Z,8.15
2022-11-29T15:00:53.716Z,8.16
2022-11-29T15:03:29.601Z,8.16
2022-11-29T15:06:01.342Z,8.15
2022-11-29T15:08:35.419Z,8.14
2022-11-29T15:11:06.735Z,8.12
2022-11-29T15:13:36.458Z,8.11
2022-11-29T15:16:24.010Z,8.11
2022-11-29T15:19:24.674Z,8.11
2022-11-29T15:22:03.632Z,8.09
2022-11-29T15:24:31.305Z,8.07
2022-11-29T15:27:00.499Z,8.11
2022-11-29T15:29:30.363Z,8.08
2022-11-29T15:32:00.335Z,8.04
2022-11-29T15:34:32.901Z,8.04
2022-11-29T15:37:02.355Z,8.05
2022-11-29T15:39:33.579Z,8.05
2022-11-29T15:42:03.833Z,8.04
2022-11-29T15:44:33.700Z,8.05
2022-11-29T15:47:22.055Z,8.05
2022-11-29T15:49:51.243Z,8.03
2022-11-29T15:52:30.777Z,8.02
2022-11-29T15:55:02.064Z,8.02
2022-11-29T15:57:35.995Z,8.00
2022-11-29T16:00:07.232Z,8.02
2022-11-29T16:02:37.875Z,8.04
2022-11-29T16:05:15.674Z,8.02
2022-11-29T16:07:46.937Z,8.02
2022-11-29T16:10:18.101Z,8.02
2022-11-29T16:12:54.204Z,8.02
2022-11-29T16:15:28.851Z,7.98
2022-11-29T16:17:56.700Z,7.97
2022-11-29T16:20:26.468Z,7.96
2022-11-29T16:23:11.292Z,7.98
2022-11-29T16:25:56.373Z,7.97
2022-11-29T16:28:26.388Z,7.98
2022-11-29T16:30:54.769Z,7.97
2022-11-29T16:33:25.634Z,7.97
2022-11-29T16:36:04.821Z,7.96
2022-11-29T16:38:34.097Z,8.02
2022-11-29T16:41:05.625Z,7.95
2022-11-29T16:43:56.082Z,7.95
2022-11-29T16:46:32.994Z,7.92
2022-11-29T16:49:24.824Z,7.93
2022-11-29T16:51:55.420Z,7.96
2022-11-29T16:54:25.073Z,7.93
2022-11-29T16:56:53.921Z,7.97
2022-11-29T16:59:27.856Z,7.94
2022-11-29T17:01:57.185Z,7.93
2022-11-29T17:04:25.480Z,7.94
2022-11-29T17:06:55.807Z,7.91
2022-11-29T17:09:26.469Z,7.94
2022-11-29T17:11:54.330Z,7.92
2022-11-29T17:14:22.033Z,7.90
2022-11-29T17:16:50.600Z,7.89
2022-11-29T17:19:19.602Z,7.90
2022-11-29T17:21:47.497Z,7.92
2022-11-29T17:24:18.435Z,7.91
2022-11-29T17:26:47.240Z,7.88
2022-11-29T17:29:17.611Z,7.88
2022-11-29T17:31:46.141Z,7.85
2022-11-29T17:34:14.239Z,7.88
2022-11-29T17:36:42.511Z,7.88
2022-11-29T17:39:10.232Z,7.86
2022-11-29T17:41:39.341Z,7.90
2022-11-29T17:44:07.409Z,7.85
2022-11-29T17:46:37.074Z,7.82
2022-11-29T17:49:07.202Z,7.84
2022-11-29T17:51:53.742Z,7.79
2022-11-29T17:54:22.126Z,7.74
2022-11-29T17:56:52.004Z,7.74
2022-11-29T17:59:20.369Z,7.72
2022-11-29T18:01:48.250Z,7.73
2022-11-29T18:04:16.420Z,7.76
2022-11-29T18:06:49.283Z,7.68
2022-11-29T18:09:17.355Z,7.68
2022-11-29T18:11:49.141Z,7.67
2022-11-29T18:14:20.802Z,7.66
2022-11-29T18:16:48.697Z,7.63
2022-11-29T18:19:18.263Z,7.62
2022-11-29T18:21:46.026Z,7.61
2022-11-29T18:24:13.838Z,7.62
2022-11-29T18:26:42.430Z,7.62
2022-11-29T18:29:11.034Z,7.62
2022-11-29T18:31:41.946Z,7.63
2022-11-29T18:34:10.883Z,7.62
2022-11-29T18:36:42.815Z,7.61
2022-11-29T18:39:13.777Z,7.60
2022-11-29T18:41:44.191Z,7.59
2022-11-29T18:44:13.811Z,7.59
2022-11-29T18:46:44.716Z,7.61
2022-11-29T18:49:14.637Z,7.60
2022-11-29T18:51:44.453Z,7.58
2022-11-29T18:54:12.986Z,7.53
2022-11-29T18:56:40.952Z,7.52
2022-11-29T18:59:10.991Z,7.51
2022-11-29T19:01:42.409Z,7.54
2022-11-29T19:04:12.970Z,7.53
2022-11-29T19:06:42.232Z,7.51
2022-11-29T19:09:13.974Z,7.46
2022-11-29T19:11:42.507Z,7.44
2022-11-29T19:14:12.562Z,7.41
2022-11-29T19:16:42.887Z,7.41
2022-11-29T19:19:12.775Z,7.45
2022-11-29T19:21:41.250Z,7.41
2022-11-29T19:24:15.008Z,7.37
2022-11-29T19:26:45.429Z,7.33
2022-11-29T19:29:14.059Z,7.32
2022-11-29T19:31:42.443Z,7.33
2022-11-29T19:34:12.224Z,7.33
2022-11-29T19:36:42.795Z,7.36
2022-11-29T19:39:12.390Z,7.36
2022-11-29T19:41:40.061Z,7.37
2022-11-29T19:44:09.448Z,7.34
2022-11-29T19:46:39.387Z,7.34
2022-11-29T19:49:08.665Z,7.34
2022-11-29T19:51:38.206Z,7.31
2022-11-29T19:54:08.437Z,7.27
2022-11-29T19:56:36.776Z,7.26
2022-11-29T19:59:06.592Z,7.26
2022-11-29T20:01:40.874Z,7.24
2022-11-29T20:04:12.671Z,7.24
2022-11-29T20:06:42.711Z,7.20
2022-11-29T20:09:10.889Z,7.19
2022-11-29T20:11:38.878Z,7.15
2022-11-29T20:14:07.909Z,7.09
2022-11-29T20:16:37.795Z,7.05
2022-11-29T20:19:09.905Z,7.01
2022-11-29T20:21:42.088Z,6.99
2022-11-29T20:24:13.178Z,6.98
2022-11-29T20:26:42.763Z,6.99
2022-11-29T20:29:12.153Z,6.96
2022-11-29T20:31:47.672Z,6.97
2022-11-29T20:34:17.994Z,6.92
2022-11-29T20:37:06.734Z,6.89
2022-11-29T20:39:43.199Z,6.88
2022-11-29T20:42:37.161Z,6.86
2022-11-29T20:45:07.817Z,6.90
2022-11-29T20:47:45.230Z,6.85
2022-11-29T20:50:21.775Z,6.82
2022-11-29T20:53:00.363Z,6.81
2022-11-29T20:55:29.725Z,6.81
2022-11-29T20:57:57.551Z,6.85
2022-11-29T21:00:26.485Z,6.86
2022-11-29T21:02:54.431Z,6.80
2022-11-29T21:05:22.255Z,6.82
2022-11-29T21:07:50.087Z,6.79
2022-11-29T21:10:19.507Z,6.76
2022-11-29T21:12:50.205Z,6.73
2022-11-29T21:15:18.917Z,6.71
2022-11-29T21:17:47.265Z,6.73
2022-11-29T21:20:19.851Z,6.67
2022-11-29T21:22:54.723Z,6.69
2022-11-29T21:25:34.742Z,6.63
2022-11-29T21:28:09.585Z,6.54
2022-11-29T21:30:39.038Z,6.50
2022-11-29T21:33:07.789Z,6.50
2022-11-29T21:35:37.469Z,6.45
2022-11-29T21:38:05.164Z,6.44
2022-11-29T21:40:32.864Z,6.39
2022-11-29T21:43:00.651Z,6.41
2022-11-29T21:45:29.958Z,6.45
2022-11-29T21:48:00.509Z,6.43
2022-11-29T21:50:28.221Z,6.44
2022-11-29T21:52:55.843Z,6.46
2022-11-29T21:55:31.420Z,6.55
2022-11-29T21:58:01.120Z,6.61
2022-11-29T22:00:35.997Z,6.67
2022-11-29T22:03:05.791Z,6.72
2022-11-29T22:05:33.539Z,6.66
2022-11-29T22:08:01.514Z,6.67
2022-11-29T22:10:29.214Z,6.68
2022-11-29T22:12:59.339Z,6.66
2022-11-29T22:15:29.310Z,6.67
2022-11-29T22:17:58.292Z,6.66
2022-11-29T22:20:25.920Z,6.67
2022-11-29T22:22:58.553Z,6.62
2022-11-29T22:25:26.707Z,6.63
2022-11-29T22:27:54.396Z,6.63
2022-11-29T22:30:22.211Z,6.79
2022-11-29T22:32:49.886Z,6.71
2022-11-29T22:35:18.956Z,6.68
2022-11-29T22:37:46.682Z,6.87
2022-11-29T22:40:15.403Z,6.74
2022-11-29T22:42:43.208Z,6.69
2022-11-29T22:45:11.713Z,6.74
2022-11-29T22:47:39.560Z,6.71
2022-11-29T22:50:08.119Z,6.71
2022-11-29T22:52:37.308Z,6.72
2022-11-29T22:55:05.548Z,6.68
2022-11-29T22:57:33.580Z,6.65
2022-11-29T23:00:01.361Z,6.63
2022-11-29T23:02:29.006Z,6.69
2022-11-29T23:04:56.882Z,6.74
2022-11-29T23:07:24.817Z,6.68
2022-11-29T23:09:55.663Z,6.76
2022-11-29T23:12:23.365Z,6.73
2022-11-29T23:14:56.087Z,6.67
2022-11-29T23:17:24.311Z,6.69
2022-11-29T23:19:52.090Z,6.70
2022-11-29T23:22:19.720Z,6.74
2022-11-29T23:24:47.463Z,6.72
2022-11-29T23:27:17.309Z,6.72
2022-11-29T23:29:45.012Z,6.68
2022-11-29T23:32:12.703Z,6.76
2022-11-29T23:34:40.337Z,6.69
2022-11-29T23:37:07.988Z,6.68
2022-11-29T23:39:35.867Z,6.65
2022-11-29T23:42:03.613Z,6.68
2022-11-29T23:44:32.893Z,6.75
2022-11-29T23:47:00.542Z,6.69
2022-11-29T23:49:28.419Z,6.64
2022-11-29T23:51:56.120Z,6.68
2022-11-29T23:54:25.058Z,6.70
2022-11-29T23:56:52.708Z,6.71
2022-11-29T23:59:20.331Z,6.73
